Nahanni Butte, Canada
Current Conditions -  °F | °C
As of 6:26 PM on Wednesday 22 Oct 2014 (Local Time) from CYFS Reporting Station
Light Snow Light Snow  
Wind Chill: 20°   Ceiling: 1100
Heat Index: 28°   Visibility: 0.75mi
Dew Point: 27°   Wind: 9mph
Humidity: 93%   Direction: 330°NNW
Pressure: 29.63"   Gusts: NA
Location:  61.05°N, 123.37°W
Report Text: CYFS 230026Z 33008KT 3/4SM -SN BR OVC011 M02/M03 A2963 RMK SN7SC1 SLP046
Loading
Personal Weather Stations






























Interactive Weather Map
Tropical Storm Tracking
New forecast layout! Learn more

10-Day Weather Forecast

Advertisements
Track Severe Weather on mobile